createdAt,value
2022-12-09T00:06:40.157Z,25.07
2022-12-09T00:16:41.655Z,24.70
2022-12-09T00:26:43.464Z,26.80
2022-12-09T00:36:45.126Z,26.83
2022-12-09T00:46:46.970Z,27.90
2022-12-09T00:56:48.719Z,27.00
2022-12-09T01:06:51.005Z,29.13
2022-12-09T01:16:52.838Z,29.67
2022-12-09T01:26:54.719Z,25.77
2022-12-09T01:36:56.285Z,28.23
2022-12-09T01:47:00.281Z,36.80
2022-12-09T01:57:02.416Z,33.43
2022-12-09T02:07:08.205Z,37.20
2022-12-09T02:17:10.238Z,36.67
2022-12-09T02:27:18.470Z,32.57
2022-12-09T02:37:28.707Z,37.30
2022-12-09T02:47:34.873Z,37.77
2022-12-09T02:57:39.408Z,35.47
2022-12-09T03:08:18.157Z,40.20
2022-12-09T03:18:21.700Z,41.17
2022-12-09T03:28:30.547Z,36.87
2022-12-09T03:38:36.316Z,35.20
2022-12-09T03:48:37.867Z,34.63
2022-12-09T03:58:42.878Z,36.00
2022-12-09T04:08:44.897Z,39.23
2022-12-09T04:18:46.675Z,36.17
2022-12-09T04:28:48.747Z,33.40
2022-12-09T04:38:50.388Z,35.20
2022-12-09T04:48:52.762Z,32.03
2022-12-09T04:58:54.283Z,32.57
2022-12-09T05:08:55.967Z,33.93
2022-12-09T05:18:59.840Z,33.60
2022-12-09T05:29:01.797Z,34.40
2022-12-09T05:39:03.775Z,34.10
2022-12-09T05:49:05.776Z,30.17
2022-12-09T05:59:07.740Z,29.07
2022-12-09T06:09:11.802Z,29.50
2022-12-09T06:19:13.957Z,31.37
2022-12-09T06:29:15.822Z,32.97
2022-12-09T06:39:17.747Z,31.47
2022-12-09T06:49:19.402Z,34.10
2022-12-09T06:59:21.693Z,32.40
2022-12-09T07:09:23.703Z,30.80
2022-12-09T07:19:25.573Z,30.10
2022-12-09T07:29:27.226Z,33.27
2022-12-09T07:39:29.281Z,31.77
2022-12-09T07:49:30.999Z,28.90
2022-12-09T07:59:32.985Z,26.57
2022-12-09T08:09:35.021Z,25.40
2022-12-09T08:19:37.248Z,22.23
2022-12-09T08:29:38.875Z,19.43
2022-12-09T08:39:40.647Z,16.83
2022-12-09T08:49:42.726Z,17.23
2022-12-09T08:59:45.449Z,20.27
2022-12-09T09:09:48.026Z,18.37
2022-12-09T09:19:50.650Z,17.37
2022-12-09T09:29:53.604Z,18.77
2022-12-09T09:39:55.508Z,17.53
2022-12-09T09:50:26.405Z,17.20
2022-12-09T10:00:35.187Z,17.60
2022-12-09T10:10:43.560Z,16.37
2022-12-09T10:20:45.977Z,15.50
2022-12-09T10:30:52.649Z,16.50
2022-12-09T10:41:09.847Z,16.87
2022-12-09T10:51:28.013Z,15.67
2022-12-09T11:01:29.896Z,16.40
2022-12-09T11:11:47.976Z,15.37
2022-12-09T11:21:50.118Z,15.33
2022-12-09T11:31:52.311Z,14.33
2022-12-09T11:42:18.188Z,15.93
2022-12-09T11:52:28.204Z,15.00
2022-12-09T12:02:38.637Z,14.43
2022-12-09T12:12:50.449Z,15.23
2022-12-09T12:23:17.728Z,15.43
2022-12-09T12:44:35.349Z,15.83
2022-12-09T12:55:14.514Z,17.17
2022-12-09T13:05:22.023Z,15.63
2022-12-09T13:15:45.187Z,14.27
2022-12-09T13:26:10.621Z,15.23
2022-12-09T13:36:21.609Z,15.70
2022-12-09T13:46:25.564Z,16.10
2022-12-09T13:56:36.201Z,15.07
2022-12-09T14:06:40.425Z,16.07
2022-12-09T14:16:43.670Z,14.70
2022-12-09T14:26:58.037Z,13.97
2022-12-09T14:37:22.497Z,14.33
2022-12-09T14:47:30.702Z,15.03
2022-12-09T14:57:46.308Z,15.07
2022-12-09T15:07:48.941Z,13.30
2022-12-09T15:18:01.727Z,14.63
2022-12-09T15:28:04.846Z,14.93
2022-12-09T15:38:08.471Z,16.90
2022-12-09T15:48:16.021Z,18.57
2022-12-09T15:58:22.912Z,18.40
2022-12-09T16:08:33.974Z,17.10
2022-12-09T16:18:49.649Z,15.80
2022-12-09T16:28:57.538Z,16.07
2022-12-09T16:39:08.263Z,16.90
2022-12-09T16:49:10.088Z,17.63
2022-12-09T16:59:11.542Z,15.70
2022-12-09T17:09:13.444Z,18.43
2022-12-09T17:19:15.032Z,18.60
2022-12-09T17:29:16.505Z,17.30
2022-12-09T17:39:17.975Z,18.50
2022-12-09T17:49:19.988Z,18.83
2022-12-09T17:59:21.469Z,17.27
2022-12-09T18:09:24.480Z,19.40
2022-12-09T18:19:26.005Z,19.80
2022-12-09T18:29:27.674Z,19.83
2022-12-09T18:39:29.783Z,19.73
2022-12-09T18:49:32.107Z,17.10
2022-12-09T18:59:33.607Z,17.87
2022-12-09T19:09:36.239Z,17.87
2022-12-09T19:19:38.109Z,17.73
2022-12-09T19:29:39.831Z,17.73
2022-12-09T19:39:44.952Z,16.90
2022-12-09T19:49:46.411Z,16.60
2022-12-09T19:59:48.638Z,17.60
2022-12-09T20:09:50.719Z,18.83
2022-12-09T20:19:52.320Z,16.33
2022-12-09T20:29:53.773Z,18.87
2022-12-09T20:39:55.247Z,16.10
2022-12-09T20:49:56.783Z,16.10
2022-12-09T20:59:58.296Z,17.63
2022-12-09T21:09:59.881Z,16.60
2022-12-09T21:20:01.680Z,17.43
2022-12-09T21:30:03.497Z,17.97
2022-12-09T21:40:05.825Z,17.07
2022-12-09T21:50:08.892Z,16.53
2022-12-09T22:00:11.106Z,16.83
2022-12-09T22:10:12.564Z,18.67
2022-12-09T22:20:53.978Z,18.60
2022-12-09T22:30:36.560Z,19.00
2022-12-09T22:40:38.052Z,18.93
2022-12-09T22:50:39.521Z,16.00
2022-12-09T23:00:41.960Z,17.37
2022-12-09T23:10:43.531Z,17.83
2022-12-09T23:20:44.986Z,16.47
2022-12-09T23:30:46.622Z,18.43
2022-12-09T23:40:54.145Z,17.33
2022-12-09T23:50:55.805Z,17.60
